Ana Sayfa
METAR-TAF:

METAR-TAF

Havaalanları :

Manassas Regional Airport (Harry P. Davis Field)

Manassas, Virginia, Amerika Birleşik Devletleri

Enlem: 38-43N, Boylam: 077-31W, yükseklik: 59 m

Güncel hava durumu gözlemi

Rapor saat 17:56 UTC de 14 dakika önce yapıldı.
Rüzgar kuzeybatıdan 4 kt
Sıcaklık 5°C
Nem 35%
Basınç 1023 hPa
Görüş mesafesi: 16.1 km
Açık gökyüzü

METAR: KHEF 071756Z 31004KT 10SM CLR 05/M09 A3022 RMK AO2 SLP242 T00501094 10061 21006 58026

Saat: 13:10 (18:10 UTC)


TAF: eksik

4.000'den fazla havaalanı için hava durumu gözlemleri ve tahminleri (METAR ve TAF raporları).

Kullanılabilir istasyonlar harita üzerinde sarı ve kırmızı noktalarla gösterilir.

İstasyonun adını görmek için fareyi noktanın üzerinde gezdirin.

Sonrasında hava gözlem ve tahminlerini görmek için tıklayın.

Haritayı değiştirmek için: yaklaştırmak için siyah artı işaretli yeşil düğmeye ve uzaklaştırmak için de eksi işaretli düğmeye hızla tıklayın; bitişik haritalar için yeşil okları kullanın.


METAR-TAF: